Aviation Digital Data Service (ADDS)

Output produced by METARs form (0854 UTC 23 July 2019)
found at http://www.aviationweather.gov/metar/data/
 
METAR text: SPQU 230800Z 05004KT 9999 BKN110 14/M03 Q1025 RMK PP000
Conditions at: SPQU (AREQUIPA/RODRIGU, PE) observed 0800 UTC 23 July 2019
Temperature: 14.0°C (57°F)
Dewpoint: -3.0°C (27°F) [RH = 31%]
Pressure (altimeter): 30.27 inches Hg (1025.0 mb)
Winds: from the NE (50 degrees) at 5 MPH (4 knots; 2.1 m/s)
Visibility: 6 or more miles (10+ km)
Ceiling: 11000 feet AGL
Clouds: broken clouds at 11000 feet AGL
Weather: no significant weather observed at this time

METAR text: SPQU 230700Z 33003KT 9999 BKN100 14/M03 Q1026 RMK PP000
Conditions at: SPQU (AREQUIPA/RODRIGU, PE) observed 0700 UTC 23 July 2019
Temperature: 14.0°C (57°F)
Dewpoint: -3.0°C (27°F) [RH = 31%]
Pressure (altimeter): 30.30 inches Hg (1026.0 mb)
Winds: from the NNW (330 degrees) at 3 MPH (3 knots; 1.5 m/s)
Visibility: 6 or more miles (10+ km)
Ceiling: 10000 feet AGL
Clouds: broken clouds at 10000 feet AGL
Weather: no significant weather observed at this time

METAR text: SPQU 230600Z 05003KT 9999 BKN110 14/M02 Q1026 RMK PP000
Conditions at: SPQU (AREQUIPA/RODRIGU, PE) observed 0600 UTC 23 July 2019
Temperature: 14.0°C (57°F)
Dewpoint: -2.0°C (28°F) [RH = 33%]
Pressure (altimeter): 30.30 inches Hg (1026.0 mb)
Winds: from the NE (50 degrees) at 3 MPH (3 knots; 1.5 m/s)
Visibility: 6 or more miles (10+ km)
Ceiling: 11000 feet AGL
Clouds: broken clouds at 11000 feet AGL
Weather: no significant weather observed at this time

METAR text: SPQU 230500Z 08004KT 9999 BKN080 14/M02 Q1027 RMK PP000
Conditions at: SPQU (AREQUIPA/RODRIGU, PE) observed 0500 UTC 23 July 2019
Temperature: 14.0°C (57°F)
Dewpoint: -2.0°C (28°F) [RH = 33%]
Pressure (altimeter): 30.32 inches Hg (1027.0 mb)
Winds: from the E (80 degrees) at 5 MPH (4 knots; 2.1 m/s)
Visibility: 6 or more miles (10+ km)
Ceiling: 8000 feet AGL
Clouds: broken clouds at 8000 feet AGL
Weather: no significant weather observed at this time

METAR text: SPQU 230400Z VRB02KT 9999 BKN080 13/00 Q1027 RMK PP000
Conditions at: SPQU (AREQUIPA/RODRIGU, PE) observed 0400 UTC 23 July 2019
Temperature: 13.0°C (55°F)
Dewpoint: 0.0°C (32°F) [RH = 41%]
Pressure (altimeter): 30.32 inches Hg (1027.0 mb)
Winds: variable direction winds at 2 MPH (2 knots; 1.0 m/s)
Visibility: 6 or more miles (10+ km)
Ceiling: 8000 feet AGL
Clouds: broken clouds at 8000 feet AGL
Weather: no significant weather observed at this time

METAR text: SPQU 230300Z 29003KT 9999 FEW030 16/M04 Q1027 RMK PP000
Conditions at: SPQU (AREQUIPA/RODRIGU, PE) observed 0300 UTC 23 July 2019
Temperature: 16.0°C (61°F)
Dewpoint: -4.0°C (25°F) [RH = 25%]
Pressure (altimeter): 30.32 inches Hg (1027.0 mb)
Winds: from the WNW (290 degrees) at 3 MPH (3 knots; 1.5 m/s)
Visibility: 6 or more miles (10+ km)
Ceiling: at least 12,000 feet AGL
Clouds: few clouds at 3000 feet AGL
Weather: no significant weather observed at this time

METAR text: SPQU 230200Z 01005KT CAVOK 14/M04 Q1027 RMK PP000
Conditions at: SPQU (AREQUIPA/RODRIGU, PE) observed 0200 UTC 23 July 2019
Temperature: 14.0°C (57°F)
Dewpoint: -4.0°C (25°F) [RH = 28%]
Pressure (altimeter): 30.32 inches Hg (1027.0 mb)
Winds: from the N (10 degrees) at 6 MPH (5 knots; 2.6 m/s)
Visibility: 6 or more miles (10+ km)
Ceiling: ceiling and visibility are OK
Clouds: unknown
Weather: no significant weather observed at this time

METAR text: SPQU 230100Z 00000KT CAVOK 11/01 Q1027 RMK PP000
Conditions at: SPQU (AREQUIPA/RODRIGU, PE) observed 0100 UTC 23 July 2019
Temperature: 11.0°C (52°F)
Dewpoint: 1.0°C (34°F) [RH = 50%]
Pressure (altimeter): 30.32 inches Hg (1027.0 mb)
Winds: calm
Visibility: 6 or more miles (10+ km)
Ceiling: ceiling and visibility are OK
Clouds: unknown
Weather: no significant weather observed at this time

METAR text: SPQU 230000Z 00000KT CAVOK 12/01 Q1026 RMK PP000
Conditions at: SPQU (AREQUIPA/RODRIGU, PE) observed 0000 UTC 23 July 2019
Temperature: 12.0°C (54°F)
Dewpoint: 1.0°C (34°F) [RH = 47%]
Pressure (altimeter): 30.30 inches Hg (1026.0 mb)
Winds: calm
Visibility: 6 or more miles (10+ km)
Ceiling: ceiling and visibility are OK
Clouds: unknown
Weather: no significant weather observed at this time

METAR text: SPQU 222300Z VRB03KT CAVOK 13/02 Q1025 NOSIG RMK PP000
Conditions at: SPQU (AREQUIPA/RODRIGU, PE) observed 2300 UTC 22 July 2019
Temperature: 13.0°C (55°F)
Dewpoint: 2.0°C (36°F) [RH = 47%]
Pressure (altimeter): 30.27 inches Hg (1025.0 mb)
Winds: variable direction winds at 3 MPH (3 knots; 1.5 m/s)
Visibility: 6 or more miles (10+ km)
Ceiling: ceiling and visibility are OK
Clouds: unknown
Weather: no significant weather observed at this time

METAR text: SPQU 222200Z 26005KT 220V290 CAVOK 17/01 Q1025 NOSIG RMK TX22.3 PP000
Conditions at: SPQU (AREQUIPA/RODRIGU, PE) observed 2200 UTC 22 July 2019
Temperature: 17.0°C (63°F)
Dewpoint: 1.0°C (34°F) [RH = 34%]
Pressure (altimeter): 30.27 inches Hg (1025.0 mb)
Winds: from the W (260 degrees) at 6 MPH (5 knots; 2.6 m/s)
Visibility: 6 or more miles (10+ km)
Ceiling: ceiling and visibility are OK
Clouds: unknown
Weather: no significant weather observed at this time

METAR text: SPQU 222100Z 26005KT 200V310 CAVOK 18/01 Q1025 NOSIG RMK PP000
Conditions at: SPQU (AREQUIPA/RODRIGU, PE) observed 2100 UTC 22 July 2019
Temperature: 18.0°C (64°F)
Dewpoint: 1.0°C (34°F) [RH = 32%]
Pressure (altimeter): 30.27 inches Hg (1025.0 mb)
Winds: from the W (260 degrees) at 6 MPH (5 knots; 2.6 m/s)
Visibility: 6 or more miles (10+ km)
Ceiling: ceiling and visibility are OK
Clouds: unknown
Weather: no significant weather observed at this time

METAR text: SPQU 222000Z 24008KT CAVOK 19/M00 Q1025 NOSIG RMK PP000
Conditions at: SPQU (AREQUIPA/RODRIGU, PE) observed 2000 UTC 22 July 2019
Temperature: 19.0°C (66°F)
Dewpoint: 0.0°C (32°F) [RH = 28%]
Pressure (altimeter): 30.27 inches Hg (1025.0 mb)
Winds: from the WSW (240 degrees) at 9 MPH (8 knots; 4.1 m/s)
Visibility: 6 or more miles (10+ km)
Ceiling: ceiling and visibility are OK
Clouds: unknown
Weather: no significant weather observed at this time

METAR text: SPQU 221900Z 25009KT 210V280 CAVOK 21/M06 Q1025 NOSIG RMK PP000
Conditions at: SPQU (AREQUIPA/RODRIGU, PE) observed 1900 UTC 22 July 2019
Temperature: 21.0°C (70°F)
Dewpoint: -6.0°C (21°F) [RH = 16%]
Pressure (altimeter): 30.27 inches Hg (1025.0 mb)
Winds: from the WSW (250 degrees) at 10 MPH (9 knots; 4.6 m/s)
Visibility: 6 or more miles (10+ km)
Ceiling: ceiling and visibility are OK
Clouds: unknown
Weather: no significant weather observed at this time

METAR text: SPQU 221800Z 25010KT 220V290 CAVOK 21/M05 Q1025 NOSIG RMK PP000
Conditions at: SPQU (AREQUIPA/RODRIGU, PE) observed 1800 UTC 22 July 2019
Temperature: 21.0°C (70°F)
Dewpoint: -5.0°C (23°F) [RH = 17%]
Pressure (altimeter): 30.27 inches Hg (1025.0 mb)
Winds: from the WSW (250 degrees) at 12 MPH (10 knots; 5.1 m/s)
Visibility: 6 or more miles (10+ km)
Ceiling: ceiling and visibility are OK
Clouds: unknown
Weather: no significant weather observed at this time

METAR text: SPQU 221700Z 25007KT 160V330 CAVOK 22/M06 Q1026 NOSIG RMK PP000
Conditions at: SPQU (AREQUIPA/RODRIGU, PE) observed 1700 UTC 22 July 2019
Temperature: 22.0°C (72°F)
Dewpoint: -6.0°C (21°F) [RH = 15%]
Pressure (altimeter): 30.30 inches Hg (1026.0 mb)
Winds: from the WSW (250 degrees) at 8 MPH (7 knots; 3.6 m/s)
Visibility: 6 or more miles (10+ km)
Ceiling: ceiling and visibility are OK
Clouds: unknown
Weather: no significant weather observed at this time

METAR text: SPQU 221600Z VRB05KT CAVOK 22/M05 Q1026 NOSIG RMK PP000
Conditions at: SPQU (AREQUIPA/RODRIGU, PE) observed 1600 UTC 22 July 2019
Temperature: 22.0°C (72°F)
Dewpoint: -5.0°C (23°F) [RH = 16%]
Pressure (altimeter): 30.30 inches Hg (1026.0 mb)
Winds: variable direction winds at 6 MPH (5 knots; 2.6 m/s)
Visibility: 6 or more miles (10+ km)
Ceiling: ceiling and visibility are OK
Clouds: unknown
Weather: no significant weather observed at this time

METAR text: SPQU 221500Z VRB05KT CAVOK 20/M06 Q1027 NOSIG RMK PP000
Conditions at: SPQU (AREQUIPA/RODRIGU, PE) observed 1500 UTC 22 July 2019
Temperature: 20.0°C (68°F)
Dewpoint: -6.0°C (21°F) [RH = 17%]
Pressure (altimeter): 30.32 inches Hg (1027.0 mb)
Winds: variable direction winds at 6 MPH (5 knots; 2.6 m/s)
Visibility: 6 or more miles (10+ km)
Ceiling: ceiling and visibility are OK
Clouds: unknown
Weather: no significant weather observed at this time

METAR text: SPQU 221400Z 07015KT CAVOK 18/M05 Q1027 NOSIG RMK PP000
Conditions at: SPQU (AREQUIPA/RODRIGU, PE) observed 1400 UTC 22 July 2019
Temperature: 18.0°C (64°F)
Dewpoint: -5.0°C (23°F) [RH = 20%]
Pressure (altimeter): 30.32 inches Hg (1027.0 mb)
Winds: from the ENE (70 degrees) at 17 MPH (15 knots; 7.7 m/s)
Visibility: 6 or more miles (10+ km)
Ceiling: ceiling and visibility are OK
Clouds: unknown
Weather: no significant weather observed at this time

METAR text: SPQU 221300Z 06012KT CAVOK 16/M06 Q1027 NOSIG RMK PP000
Conditions at: SPQU (AREQUIPA/RODRIGU, PE) observed 1300 UTC 22 July 2019
Temperature: 16.0°C (61°F)
Dewpoint: -6.0°C (21°F) [RH = 21%]
Pressure (altimeter): 30.32 inches Hg (1027.0 mb)
Winds: from the ENE (60 degrees) at 14 MPH (12 knots; 6.2 m/s)
Visibility: 6 or more miles (10+ km)
Ceiling: ceiling and visibility are OK
Clouds: unknown
Weather: no significant weather observed at this time

METAR text: SPQU 221200Z 07014KT CAVOK 13/M06 Q1026 NOSIG RMK TN 10.5 PP000
Conditions at: SPQU (AREQUIPA/RODRIGU, PE) observed 1200 UTC 22 July 2019
Temperature: 13.0°C (55°F)
Dewpoint: -6.0°C (21°F) [RH = 26%]
Pressure (altimeter): 30.30 inches Hg (1026.0 mb)
Winds: from the ENE (70 degrees) at 16 MPH (14 knots; 7.2 m/s)
Visibility: 6 or more miles (10+ km)
Ceiling: ceiling and visibility are OK
Clouds: unknown
Weather: no significant weather observed at this time

METAR text: SPQU 221100Z 06011KT CAVOK 12/M07 Q1026 RMK PP000
Conditions at: SPQU (AREQUIPA/RODRIGU, PE) observed 1100 UTC 22 July 2019
Temperature: 12.0°C (54°F)
Dewpoint: -7.0°C (19°F) [RH = 26%]
Pressure (altimeter): 30.30 inches Hg (1026.0 mb)
Winds: from the ENE (60 degrees) at 13 MPH (11 knots; 5.7 m/s)
Visibility: 6 or more miles (10+ km)
Ceiling: ceiling and visibility are OK
Clouds: unknown
Weather: no significant weather observed at this time

METAR text: SPQU 221000Z 06012KT CAVOK 13/M07 Q1025 RMK PP000
Conditions at: SPQU (AREQUIPA/RODRIGU, PE) observed 1000 UTC 22 July 2019
Temperature: 13.0°C (55°F)
Dewpoint: -7.0°C (19°F) [RH = 24%]
Pressure (altimeter): 30.27 inches Hg (1025.0 mb)
Winds: from the ENE (60 degrees) at 14 MPH (12 knots; 6.2 m/s)
Visibility: 6 or more miles (10+ km)
Ceiling: ceiling and visibility are OK
Clouds: unknown
Weather: no significant weather observed at this time

METAR text: SPQU 220900Z 06011KT CAVOK 12/M07 Q1025 RMK PP000
Conditions at: SPQU (AREQUIPA/RODRIGU, PE) observed 0900 UTC 22 July 2019
Temperature: 12.0°C (54°F)
Dewpoint: -7.0°C (19°F) [RH = 26%]
Pressure (altimeter): 30.27 inches Hg (1025.0 mb)
Winds: from the ENE (60 degrees) at 13 MPH (11 knots; 5.7 m/s)
Visibility: 6 or more miles (10+ km)
Ceiling: ceiling and visibility are OK
Clouds: unknown
Weather: no significant weather observed at this time

METAR text: SPQU 220800Z 05010KT CAVOK 12/M07 Q1025 RMK PP000
Conditions at: SPQU (AREQUIPA/RODRIGU, PE) observed 0800 UTC 22 July 2019
Temperature: 12.0°C (54°F)
Dewpoint: -7.0°C (19°F) [RH = 26%]
Pressure (altimeter): 30.27 inches Hg (1025.0 mb)
Winds: from the NE (50 degrees) at 12 MPH (10 knots; 5.1 m/s)
Visibility: 6 or more miles (10+ km)
Ceiling: ceiling and visibility are OK
Clouds: unknown
Weather: no significant weather observed at this time

METAR text: SPQU 220700Z 07011KT CAVOK 12/M06 Q1026 RMK PP000
Conditions at: SPQU (AREQUIPA/RODRIGU, PE) observed 0700 UTC 22 July 2019
Temperature: 12.0°C (54°F)
Dewpoint: -6.0°C (21°F) [RH = 28%]
Pressure (altimeter): 30.30 inches Hg (1026.0 mb)
Winds: from the ENE (70 degrees) at 13 MPH (11 knots; 5.7 m/s)
Visibility: 6 or more miles (10+ km)
Ceiling: ceiling and visibility are OK
Clouds: unknown
Weather: no significant weather observed at this time

METAR text: SPQU 220600Z 06009KT CAVOK 12/M05 Q1026 RMK PP000
Conditions at: SPQU (AREQUIPA/RODRIGU, PE) observed 0600 UTC 22 July 2019
Temperature: 12.0°C (54°F)
Dewpoint: -5.0°C (23°F) [RH = 30%]
Pressure (altimeter): 30.30 inches Hg (1026.0 mb)
Winds: from the ENE (60 degrees) at 10 MPH (9 knots; 4.6 m/s)
Visibility: 6 or more miles (10+ km)
Ceiling: ceiling and visibility are OK
Clouds: unknown
Weather: no significant weather observed at this time

METAR text: SPQU 220500Z 06007KT CAVOK 12/M05 Q1027 RMK PP000
Conditions at: SPQU (AREQUIPA/RODRIGU, PE) observed 0500 UTC 22 July 2019
Temperature: 12.0°C (54°F)
Dewpoint: -5.0°C (23°F) [RH = 30%]
Pressure (altimeter): 30.32 inches Hg (1027.0 mb)
Winds: from the ENE (60 degrees) at 8 MPH (7 knots; 3.6 m/s)
Visibility: 6 or more miles (10+ km)
Ceiling: ceiling and visibility are OK
Clouds: unknown
Weather: no significant weather observed at this time

METAR text: SPQU 220400Z 02006KT CAVOK 13/M05 Q1027 RMK PP000
Conditions at: SPQU (AREQUIPA/RODRIGU, PE) observed 0400 UTC 22 July 2019
Temperature: 13.0°C (55°F)
Dewpoint: -5.0°C (23°F) [RH = 28%]
Pressure (altimeter): 30.32 inches Hg (1027.0 mb)
Winds: from the NNE (20 degrees) at 7 MPH (6 knots; 3.1 m/s)
Visibility: 6 or more miles (10+ km)
Ceiling: ceiling and visibility are OK
Clouds: unknown
Weather: no significant weather observed at this time

METAR text: SPQU 220300Z 02005KT CAVOK 14/M05 Q1027 RMK PP000
Conditions at: SPQU (AREQUIPA/RODRIGU, PE) observed 0300 UTC 22 July 2019
Temperature: 14.0°C (57°F)
Dewpoint: -5.0°C (23°F) [RH = 26%]
Pressure (altimeter): 30.32 inches Hg (1027.0 mb)
Winds: from the NNE (20 degrees) at 6 MPH (5 knots; 2.6 m/s)
Visibility: 6 or more miles (10+ km)
Ceiling: ceiling and visibility are OK
Clouds: unknown
Weather: no significant weather observed at this time

METAR text: SPQU 220200Z 02005KT CAVOK 14/M04 Q1027 RMK PP000
Conditions at: SPQU (AREQUIPA/RODRIGU, PE) observed 0200 UTC 22 July 2019
Temperature: 14.0°C (57°F)
Dewpoint: -4.0°C (25°F) [RH = 28%]
Pressure (altimeter): 30.32 inches Hg (1027.0 mb)
Winds: from the NNE (20 degrees) at 6 MPH (5 knots; 2.6 m/s)
Visibility: 6 or more miles (10+ km)
Ceiling: ceiling and visibility are OK
Clouds: unknown
Weather: no significant weather observed at this time

METAR text: SPQU 220100Z VRB03KT CAVOK 13/M05 Q1026 RMK PP000
Conditions at: SPQU (AREQUIPA/RODRIGU, PE) observed 0100 UTC 22 July 2019
Temperature: 13.0°C (55°F)
Dewpoint: -5.0°C (23°F) [RH = 28%]
Pressure (altimeter): 30.30 inches Hg (1026.0 mb)
Winds: variable direction winds at 3 MPH (3 knots; 1.5 m/s)
Visibility: 6 or more miles (10+ km)
Ceiling: ceiling and visibility are OK
Clouds: unknown
Weather: no significant weather observed at this time

METAR text: SPQU 220000Z 11006KT CAVOK 14/M04 Q1026 RMK PP000
Conditions at: SPQU (AREQUIPA/RODRIGU, PE) observed 0000 UTC 22 July 2019
Temperature: 14.0°C (57°F)
Dewpoint: -4.0°C (25°F) [RH = 28%]
Pressure (altimeter): 30.30 inches Hg (1026.0 mb)
Winds: from the ESE (110 degrees) at 7 MPH (6 knots; 3.1 m/s)
Visibility: 6 or more miles (10+ km)
Ceiling: ceiling and visibility are OK
Clouds: unknown
Weather: no significant weather observed at this time

METAR text: SPQU 212300Z 26004KT CAVOK 15/M05 Q1025 NOSIG RMK PP000
Conditions at: SPQU (AREQUIPA/RODRIGU, PE) observed 2300 UTC 21 July 2019
Temperature: 15.0°C (59°F)
Dewpoint: -5.0°C (23°F) [RH = 25%]
Pressure (altimeter): 30.27 inches Hg (1025.0 mb)
Winds: from the W (260 degrees) at 5 MPH (4 knots; 2.1 m/s)
Visibility: 6 or more miles (10+ km)
Ceiling: ceiling and visibility are OK
Clouds: unknown
Weather: no significant weather observed at this time

METAR text: SPQU 212200Z 27007KT CAVOK 18/M05 Q1025 NOSIG RMK TX 22.1 PP000
Conditions at: SPQU (AREQUIPA/RODRIGU, PE) observed 2200 UTC 21 July 2019
Temperature: 18.0°C (64°F)
Dewpoint: -5.0°C (23°F) [RH = 20%]
Pressure (altimeter): 30.27 inches Hg (1025.0 mb)
Winds: from the W (270 degrees) at 8 MPH (7 knots; 3.6 m/s)
Visibility: 6 or more miles (10+ km)
Ceiling: ceiling and visibility are OK
Clouds: unknown
Weather: no significant weather observed at this time

METAR text: SPQU 212100Z 26011KT CAVOK 19/M06 Q1025 NOSIG RMK PP000
Conditions at: SPQU (AREQUIPA/RODRIGU, PE) observed 2100 UTC 21 July 2019
Temperature: 19.0°C (66°F)
Dewpoint: -6.0°C (21°F) [RH = 18%]
Pressure (altimeter): 30.27 inches Hg (1025.0 mb)
Winds: from the W (260 degrees) at 13 MPH (11 knots; 5.7 m/s)
Visibility: 6 or more miles (10+ km)
Ceiling: ceiling and visibility are OK
Clouds: unknown
Weather: no significant weather observed at this time

Forecast for: SPQU (AREQUIPA/RODRIGU, PE)
Text: TAF SPQU 222300Z 2300/2324 03005KT CAVOK TX22/2316Z TN10/2310Z
Forecast period: 0000 to 0900 UTC 23 July 2019
Forecast type: FROM: standard forecast or significant change
Winds: from the NNE (30 degrees) at 6 MPH (5 knots; 2.6 m/s)
Visibility: 6 or more miles 10+ km)
Ceiling: unknown
Clouds: missing
Weather: no significant weather forecast for this period
Text: FM230900 06010KT CAVOK
Forecast period: 0900 to 1400 UTC 23 July 2019
Forecast type: FROM: standard forecast or significant change
Winds: from the ENE (60 degrees) at 12 MPH (10 knots; 5.1 m/s)
Visibility: 6 or more miles 10+ km)
Ceiling: unknown
Clouds: missing
Weather: NSW  (no significant weather)
Text: BECMG 2314/2315 24005KT
Forecast period: 1400 to 1800 UTC 23 July 2019
Forecast type: BECOMING: Conditions expected to become as follows by 1500 UTC 23 July 2019
Winds: from the WSW (240 degrees) at 6 MPH (5 knots; 2.6 m/s)
Visibility: 6 or more miles 10+ km)
Ceiling: unknown
Clouds: missing
Weather: NSW  (no significant weather)
Text: FM231800 26010KT CAVOK
Forecast period: 1800 UTC 23 July 2019 to 0000 UTC 24 July 2019
Forecast type: FROM: standard forecast or significant change
Winds: from the W (260 degrees) at 12 MPH (10 knots; 5.1 m/s)
Visibility: 6 or more miles 10+ km)
Ceiling: unknown
Clouds: missing
Weather: NSW  (no significant weather)